Henry, VA (24102)

2:30 PM EST on January 26, 2015 (GMT -0500)
Rocky Mt., VA/Waidsboro area | Change Station
CLOSE
Current Station
Personal Weather Station
Location: Rocky Mount, VA
Elevation: 1184 ft
Nearby Weather Stations

Elev 1184 ft 36.95 °N, 79.94 °W | Updated 3 minutes ago

Overcast
Overcast
43.5 °F
Feels Like 44 °F
N
0.0
Wind Variable Wind from ENE
Gusts 7.0 mph

Today
High -- | Low -- °F
--% Chance of Precip.
Yesterday
High -- | Low -- °F
Precip. -- in
7:26 AM 5:38 PM
Waxing Crescent, 46% visible
Pressure 29.63 in
Visibility 10.0 miles
Clouds Scattered Clouds 2000 ft
Scattered Clouds 6500 ft
Overcast 9500 ft
Windchill 44 °F
Dew Point 38 °F
Humidity 81%
Rainfall 0.00 in
Snow Depth Not available.
UV 1 out of 12
Pollen .30 out of 12
Air Quality Not available.
Flu Activity Not available.
METAR KMTV 261915Z AUTO 04003KT 10SM SCT020 SCT065 OVC095 08/03 A2963 RMK AO2 T00790032

More Conditions Fewer Conditions

Pressure 29.63 in
Visibility 10.0 miles
Clouds Scattered Clouds 2000 ft
Scattered Clouds 6500 ft
Overcast 9500 ft
Windchill 44 °F
Dew Point 38 °F
Humidity 81%
Rainfall 0.00 in
Snow Depth Not available.
UV 1 out of 12
Pollen .30 out of 12
Air Quality Not available.
Flu Activity Not available.
METAR KMTV 261915Z AUTO 04003KT 10SM SCT020 SCT065 OVC095 08/03 A2963 RMK AO2 T00790032

More Conditions Fewer Conditions

10-Day Weather Forecast

Almanac

Astronomy

Jan. 26, 2015 Rise Set
Actual Time
Civil Twilight
Nautical Twilight
Astronomical Twilight
Moon
Length of Visible Light
Length of Day
Tomorrow will be .
, % of the Moon is Illuminated

Today's Extremes

State Highs State Lows

Community

WunderPhotos

Upload Photos

1,790,338 photos uploaded!

WunderBlogs® & News

Nearby

Air Quality

  Air Quality AQ Index Pollutant
Not available.

Snow Depth

Station Depth Elevation

Earthquake Activity

City Distance Mag. Time & Date
Minimum magnitude displayed is 2.5.

Coastal Water Temperatures

Place Temperature

Nearby Weather Stations